sensor_id;sensor_type;location;lat;lon;timestamp;P1;durP1;ratioP1;P2;durP2;ratioP2
64716;SDS011;51146;50.274;19.000;2022-08-19T00:01:58;12.98;;;11.65;;
64716;SDS011;51146;50.274;19.000;2022-08-19T00:04:29;12.50;;;11.30;;
64716;SDS011;51146;50.274;19.000;2022-08-19T00:07:00;14.68;;;10.80;;
64716;SDS011;51146;50.274;19.000;2022-08-19T00:09:28;12.55;;;11.27;;
64716;SDS011;51146;50.274;19.000;2022-08-19T00:11:55;13.80;;;12.25;;
64716;SDS011;51146;50.274;19.000;2022-08-19T00:14:24;14.43;;;11.75;;
64716;SDS011;51146;50.274;19.000;2022-08-19T00:16:53;14.35;;;11.35;;
64716;SDS011;51146;50.274;19.000;2022-08-19T00:19:21;13.68;;;12.23;;
64716;SDS011;51146;50.274;19.000;2022-08-19T00:21:48;14.68;;;12.25;;
64716;SDS011;51146;50.274;19.000;2022-08-19T00:24:16;13.93;;;11.27;;
64716;SDS011;51146;50.274;19.000;2022-08-19T00:26:43;13.80;;;12.38;;
64716;SDS011;51146;50.274;19.000;2022-08-19T00:29:12;14.17;;;11.27;;
64716;SDS011;51146;50.274;19.000;2022-08-19T00:31:43;13.05;;;11.75;;
64716;SDS011;51146;50.274;19.000;2022-08-19T00:34:11;15.50;;;13.77;;
64716;SDS011;51146;50.274;19.000;2022-08-19T00:36:39;15.02;;;12.40;;
64716;SDS011;51146;50.274;19.000;2022-08-19T00:39:07;15.48;;;12.13;;
64716;SDS011;51146;50.274;19.000;2022-08-19T00:41:35;14.40;;;12.25;;
64716;SDS011;51146;50.274;19.000;2022-08-19T00:44:06;16.05;;;12.85;;
64716;SDS011;51146;50.274;19.000;2022-08-19T00:46:42;13.30;;;11.88;;
64716;SDS011;51146;50.274;19.000;2022-08-19T00:49:25;13.85;;;12.25;;
64716;SDS011;51146;50.274;19.000;2022-08-19T00:52:03;15.82;;;13.32;;
64716;SDS011;51146;50.274;19.000;2022-08-19T00:54:33;14.70;;;12.73;;
64716;SDS011;51146;50.274;19.000;2022-08-19T00:57:00;14.50;;;12.25;;
64716;SDS011;51146;50.274;19.000;2022-08-19T00:59:30;24.50;;;13.85;;
64716;SDS011;51146;50.274;19.000;2022-08-19T01:02:16;13.70;;;12.32;;
64716;SDS011;51146;50.274;19.000;2022-08-19T01:04:43;14.35;;;12.65;;
64716;SDS011;51146;50.274;19.000;2022-08-19T01:07:10;14.75;;;12.70;;
64716;SDS011;51146;50.274;19.000;2022-08-19T01:09:44;16.63;;;13.77;;
64716;SDS011;51146;50.274;19.000;2022-08-19T01:12:11;16.33;;;13.75;;
64716;SDS011;51146;50.274;19.000;2022-08-19T01:14:39;15.48;;;12.73;;
64716;SDS011;51146;50.274;19.000;2022-08-19T01:17:08;15.38;;;13.77;;
64716;SDS011;51146;50.274;19.000;2022-08-19T01:19:37;15.45;;;13.65;;
64716;SDS011;51146;50.274;19.000;2022-08-19T01:24:59;15.43;;;13.85;;
64716;SDS011;51146;50.274;19.000;2022-08-19T01:27:26;14.57;;;13.07;;
64716;SDS011;51146;50.274;19.000;2022-08-19T01:30:08;15.48;;;13.75;;
64716;SDS011;51146;50.274;19.000;2022-08-19T01:32:38;15.98;;;13.13;;
64716;SDS011;51146;50.274;19.000;2022-08-19T01:35:05;17.55;;;13.32;;
64716;SDS011;51146;50.274;19.000;2022-08-19T01:37:41;17.08;;;13.25;;
64716;SDS011;51146;50.274;19.000;2022-08-19T01:40:15;16.02;;;13.52;;
64716;SDS011;51146;50.274;19.000;2022-08-19T01:42:43;16.02;;;13.55;;
64716;SDS011;51146;50.274;19.000;2022-08-19T01:45:10;18.98;;;13.60;;
64716;SDS011;51146;50.274;19.000;2022-08-19T01:47:37;17.65;;;15.15;;
64716;SDS011;51146;50.274;19.000;2022-08-19T01:50:05;16.30;;;14.52;;
64716;SDS011;51146;50.274;19.000;2022-08-19T01:55:02;21.88;;;14.63;;
64716;SDS011;51146;50.274;19.000;2022-08-19T01:57:29;20.27;;;14.93;;
64716;SDS011;51146;50.274;19.000;2022-08-19T01:59:56;17.20;;;14.93;;
64716;SDS011;51146;50.274;19.000;2022-08-19T02:02:23;16.65;;;14.85;;
64716;SDS011;51146;50.274;19.000;2022-08-19T02:04:51;20.77;;;14.80;;
64716;SDS011;51146;50.274;19.000;2022-08-19T02:07:20;17.85;;;15.38;;
64716;SDS011;51146;50.274;19.000;2022-08-19T02:09:47;21.55;;;16.20;;
64716;SDS011;51146;50.274;19.000;2022-08-19T02:12:14;17.92;;;14.93;;
64716;SDS011;51146;50.274;19.000;2022-08-19T02:14:42;17.08;;;15.13;;
64716;SDS011;51146;50.274;19.000;2022-08-19T02:17:09;18.80;;;14.25;;
64716;SDS011;51146;50.274;19.000;2022-08-19T02:19:35;17.70;;;14.93;;
64716;SDS011;51146;50.274;19.000;2022-08-19T02:22:06;19.55;;;14.60;;
64716;SDS011;51146;50.274;19.000;2022-08-19T02:24:33;17.92;;;15.43;;
64716;SDS011;51146;50.274;19.000;2022-08-19T02:27:00;17.75;;;14.65;;
64716;SDS011;51146;50.274;19.000;2022-08-19T02:29:27;17.13;;;15.18;;
64716;SDS011;51146;50.274;19.000;2022-08-19T02:31:54;16.17;;;14.35;;
64716;SDS011;51146;50.274;19.000;2022-08-19T02:34:20;17.73;;;14.15;;
64716;SDS011;51146;50.274;19.000;2022-08-19T02:36:47;17.52;;;15.63;;
64716;SDS011;51146;50.274;19.000;2022-08-19T02:39:17;17.30;;;15.15;;
64716;SDS011;51146;50.274;19.000;2022-08-19T02:41:45;16.60;;;14.65;;
64716;SDS011;51146;50.274;19.000;2022-08-19T02:44:12;19.90;;;15.32;;
64716;SDS011;51146;50.274;19.000;2022-08-19T02:46:56;20.20;;;16.13;;
64716;SDS011;51146;50.274;19.000;2022-08-19T02:49:24;18.70;;;15.13;;
64716;SDS011;51146;50.274;19.000;2022-08-19T02:51:51;19.38;;;16.17;;
64716;SDS011;51146;50.274;19.000;2022-08-19T02:54:17;19.17;;;15.02;;
64716;SDS011;51146;50.274;19.000;2022-08-19T02:56:45;19.00;;;14.85;;
64716;SDS011;51146;50.274;19.000;2022-08-19T02:59:13;17.75;;;15.85;;
64716;SDS011;51146;50.274;19.000;2022-08-19T03:01:40;19.02;;;15.80;;
64716;SDS011;51146;50.274;19.000;2022-08-19T03:04:10;18.13;;;16.30;;
64716;SDS011;51146;50.274;19.000;2022-08-19T03:06:39;17.52;;;15.60;;
64716;SDS011;51146;50.274;19.000;2022-08-19T03:09:09;16.45;;;14.60;;
64716;SDS011;51146;50.274;19.000;2022-08-19T03:11:37;17.20;;;14.47;;
64716;SDS011;51146;50.274;19.000;2022-08-19T03:14:04;17.10;;;15.35;;
64716;SDS011;51146;50.274;19.000;2022-08-19T03:16:34;18.73;;;14.77;;
64716;SDS011;51146;50.274;19.000;2022-08-19T03:19:06;19.05;;;15.25;;
64716;SDS011;51146;50.274;19.000;2022-08-19T03:21:34;16.77;;;14.98;;
64716;SDS011;51146;50.274;19.000;2022-08-19T03:24:07;19.88;;;15.55;;
64716;SDS011;51146;50.274;19.000;2022-08-19T03:26:42;18.30;;;15.30;;
64716;SDS011;51146;50.274;19.000;2022-08-19T03:29:11;21.02;;;14.82;;
64716;SDS011;51146;50.274;19.000;2022-08-19T03:31:40;17.05;;;14.98;;
64716;SDS011;51146;50.274;19.000;2022-08-19T03:34:22;18.70;;;15.70;;
64716;SDS011;51146;50.274;19.000;2022-08-19T03:36:56;20.73;;;14.88;;
64716;SDS011;51146;50.274;19.000;2022-08-19T03:39:26;17.13;;;15.05;;
64716;SDS011;51146;50.274;19.000;2022-08-19T03:41:54;20.27;;;16.67;;
64716;SDS011;51146;50.274;19.000;2022-08-19T03:44:46;17.42;;;15.70;;
64716;SDS011;51146;50.274;19.000;2022-08-19T03:47:12;17.38;;;15.18;;
64716;SDS011;51146;50.274;19.000;2022-08-19T03:49:42;16.95;;;15.15;;
64716;SDS011;51146;50.274;19.000;2022-08-19T03:52:09;16.17;;;14.20;;
64716;SDS011;51146;50.274;19.000;2022-08-19T03:54:36;16.27;;;14.63;;
64716;SDS011;51146;50.274;19.000;2022-08-19T03:57:04;23.45;;;16.70;;
64716;SDS011;51146;50.274;19.000;2022-08-19T03:59:32;17.85;;;15.65;;
64716;SDS011;51146;50.274;19.000;2022-08-19T04:02:02;17.75;;;15.85;;
64716;SDS011;51146;50.274;19.000;2022-08-19T04:04:35;18.58;;;15.88;;
64716;SDS011;51146;50.274;19.000;2022-08-19T04:07:03;18.13;;;16.10;;
64716;SDS011;51146;50.274;19.000;2022-08-19T04:09:32;17.45;;;15.75;;
64716;SDS011;51146;50.274;19.000;2022-08-19T04:14:27;18.23;;;14.88;;
64716;SDS011;51146;50.274;19.000;2022-08-19T04:16:58;16.88;;;14.45;;
64716;SDS011;51146;50.274;19.000;2022-08-19T04:19:26;15.73;;;14.05;;
64716;SDS011;51146;50.274;19.000;2022-08-19T04:21:55;21.30;;;16.15;;
64716;SDS011;51146;50.274;19.000;2022-08-19T04:24:23;17.73;;;14.95;;
64716;SDS011;51146;50.274;19.000;2022-08-19T04:26:50;17.70;;;15.45;;
64716;SDS011;51146;50.274;19.000;2022-08-19T04:29:19;16.75;;;14.30;;
64716;SDS011;51146;50.274;19.000;2022-08-19T04:31:51;17.65;;;14.45;;
64716;SDS011;51146;50.274;19.000;2022-08-19T04:34:20;15.32;;;13.70;;
64716;SDS011;51146;50.274;19.000;2022-08-19T04:36:50;18.90;;;14.43;;
64716;SDS011;51146;50.274;19.000;2022-08-19T04:39:20;17.23;;;14.25;;
64716;SDS011;51146;50.274;19.000;2022-08-19T04:42:10;15.73;;;12.73;;
64716;SDS011;51146;50.274;19.000;2022-08-19T04:44:56;18.05;;;13.50;;
64716;SDS011;51146;50.274;19.000;2022-08-19T04:47:25;21.75;;;14.88;;
64716;SDS011;51146;50.274;19.000;2022-08-19T04:50:11;20.33;;;14.23;;
64716;SDS011;51146;50.274;19.000;2022-08-19T04:52:38;16.40;;;14.40;;
64716;SDS011;51146;50.274;19.000;2022-08-19T04:55:09;18.05;;;14.32;;
64716;SDS011;51146;50.274;19.000;2022-08-19T04:57:37;16.30;;;14.50;;
64716;SDS011;51146;50.274;19.000;2022-08-19T05:00:10;15.68;;;13.40;;
64716;SDS011;51146;50.274;19.000;2022-08-19T05:02:37;18.50;;;14.38;;
64716;SDS011;51146;50.274;19.000;2022-08-19T05:05:04;15.52;;;14.00;;
64716;SDS011;51146;50.274;19.000;2022-08-19T05:07:33;17.42;;;13.57;;
64716;SDS011;51146;50.274;19.000;2022-08-19T05:10:00;15.55;;;13.13;;
64716;SDS011;51146;50.274;19.000;2022-08-19T05:12:28;15.45;;;13.52;;
64716;SDS011;51146;50.274;19.000;2022-08-19T05:14:55;20.50;;;13.30;;
64716;SDS011;51146;50.274;19.000;2022-08-19T05:17:25;15.23;;;13.50;;
64716;SDS011;51146;50.274;19.000;2022-08-19T05:19:54;16.60;;;13.07;;
64716;SDS011;51146;50.274;19.000;2022-08-19T05:22:40;19.92;;;14.32;;
64716;SDS011;51146;50.274;19.000;2022-08-19T05:25:10;15.18;;;13.15;;
64716;SDS011;51146;50.274;19.000;2022-08-19T05:27:40;15.65;;;13.57;;
64716;SDS011;51146;50.274;19.000;2022-08-19T05:30:08;18.58;;;12.73;;
64716;SDS011;51146;50.274;19.000;2022-08-19T05:32:36;18.08;;;13.55;;
64716;SDS011;51146;50.274;19.000;2022-08-19T05:35:03;16.65;;;13.20;;
64716;SDS011;51146;50.274;19.000;2022-08-19T05:37:31;18.02;;;13.10;;
64716;SDS011;51146;50.274;19.000;2022-08-19T05:39:58;15.52;;;13.80;;
64716;SDS011;51146;50.274;19.000;2022-08-19T05:42:27;16.67;;;13.27;;
64716;SDS011;51146;50.274;19.000;2022-08-19T05:44:53;14.68;;;13.10;;
64716;SDS011;51146;50.274;19.000;2022-08-19T05:47:22;15.93;;;13.43;;
64716;SDS011;51146;50.274;19.000;2022-08-19T05:49:49;16.98;;;13.80;;
64716;SDS011;51146;50.274;19.000;2022-08-19T05:52:18;14.48;;;13.02;;
64716;SDS011;51146;50.274;19.000;2022-08-19T05:54:51;15.77;;;13.00;;
64716;SDS011;51146;50.274;19.000;2022-08-19T05:57:21;14.63;;;13.13;;
64716;SDS011;51146;50.274;19.000;2022-08-19T05:59:49;17.58;;;12.80;;
64716;SDS011;51146;50.274;19.000;2022-08-19T06:02:26;13.50;;;12.20;;
64716;SDS011;51146;50.274;19.000;2022-08-19T06:04:54;16.20;;;12.43;;
64716;SDS011;51146;50.274;19.000;2022-08-19T06:07:21;17.40;;;12.70;;
64716;SDS011;51146;50.274;19.000;2022-08-19T06:09:48;20.05;;;13.27;;
64716;SDS011;51146;50.274;19.000;2022-08-19T06:12:26;18.48;;;13.43;;
64716;SDS011;51146;50.274;19.000;2022-08-19T06:14:58;16.23;;;12.45;;
64716;SDS011;51146;50.274;19.000;2022-08-19T06:17:28;17.80;;;13.50;;
64716;SDS011;51146;50.274;19.000;2022-08-19T06:19:57;15.48;;;12.40;;
64716;SDS011;51146;50.274;19.000;2022-08-19T06:22:25;17.13;;;12.13;;
64716;SDS011;51146;50.274;19.000;2022-08-19T06:24:52;16.88;;;12.15;;
64716;SDS011;51146;50.274;19.000;2022-08-19T06:27:20;19.92;;;12.40;;
64716;SDS011;51146;50.274;19.000;2022-08-19T06:29:48;15.80;;;12.50;;
64716;SDS011;51146;50.274;19.000;2022-08-19T06:32:15;20.50;;;12.40;;
64716;SDS011;51146;50.274;19.000;2022-08-19T06:34:44;14.63;;;11.95;;
64716;SDS011;51146;50.274;19.000;2022-08-19T06:37:11;13.15;;;10.73;;
64716;SDS011;51146;50.274;19.000;2022-08-19T06:39:39;14.98;;;11.55;;
64716;SDS011;51146;50.274;19.000;2022-08-19T06:42:07;14.75;;;11.13;;
64716;SDS011;51146;50.274;19.000;2022-08-19T06:44:38;13.45;;;11.95;;
64716;SDS011;51146;50.274;19.000;2022-08-19T06:47:13;20.65;;;13.07;;
64716;SDS011;51146;50.274;19.000;2022-08-19T06:49:56;15.18;;;12.05;;
64716;SDS011;51146;50.274;19.000;2022-08-19T06:52:31;13.60;;;11.63;;
64716;SDS011;51146;50.274;19.000;2022-08-19T06:55:02;12.52;;;11.23;;
64716;SDS011;51146;50.274;19.000;2022-08-19T06:57:31;14.82;;;11.27;;
64716;SDS011;51146;50.274;19.000;2022-08-19T06:59:58;13.88;;;11.98;;
64716;SDS011;51146;50.274;19.000;2022-08-19T07:02:26;15.65;;;12.23;;
64716;SDS011;51146;50.274;19.000;2022-08-19T07:04:53;13.45;;;11.73;;
64716;SDS011;51146;50.274;19.000;2022-08-19T07:07:20;18.05;;;11.82;;
64716;SDS011;51146;50.274;19.000;2022-08-19T07:09:49;18.65;;;12.48;;
64716;SDS011;51146;50.274;19.000;2022-08-19T07:12:29;17.00;;;12.38;;
64716;SDS011;51146;50.274;19.000;2022-08-19T07:15:06;14.55;;;11.18;;
64716;SDS011;51146;50.274;19.000;2022-08-19T07:17:35;12.90;;;11.55;;
64716;SDS011;51146;50.274;19.000;2022-08-19T07:20:05;13.70;;;11.48;;
64716;SDS011;51146;50.274;19.000;2022-08-19T07:22:36;17.88;;;11.43;;
64716;SDS011;51146;50.274;19.000;2022-08-19T07:25:03;15.87;;;11.60;;
64716;SDS011;51146;50.274;19.000;2022-08-19T07:27:33;16.23;;;11.15;;
64716;SDS011;51146;50.274;19.000;2022-08-19T07:30:00;20.52;;;12.07;;
64716;SDS011;51146;50.274;19.000;2022-08-19T07:32:27;15.43;;;12.20;;
64716;SDS011;51146;50.274;19.000;2022-08-19T07:34:54;13.70;;;11.75;;
64716;SDS011;51146;50.274;19.000;2022-08-19T07:37:22;13.50;;;12.15;;
64716;SDS011;51146;50.274;19.000;2022-08-19T07:39:58;14.75;;;11.93;;
64716;SDS011;51146;50.274;19.000;2022-08-19T07:42:26;15.70;;;11.98;;
64716;SDS011;51146;50.274;19.000;2022-08-19T07:44:54;15.87;;;11.10;;
64716;SDS011;51146;50.274;19.000;2022-08-19T07:47:21;14.73;;;11.25;;
64716;SDS011;51146;50.274;19.000;2022-08-19T07:50:09;14.23;;;11.43;;
64716;SDS011;51146;50.274;19.000;2022-08-19T07:52:38;21.42;;;12.10;;
64716;SDS011;51146;50.274;19.000;2022-08-19T07:55:07;20.30;;;12.05;;
64716;SDS011;51146;50.274;19.000;2022-08-19T08:00:21;21.45;;;11.73;;
64716;SDS011;51146;50.274;19.000;2022-08-19T08:02:49;20.63;;;11.47;;
64716;SDS011;51146;50.274;19.000;2022-08-19T08:05:20;15.73;;;11.32;;
64716;SDS011;51146;50.274;19.000;2022-08-19T08:08:09;13.73;;;10.63;;
64716;SDS011;51146;50.274;19.000;2022-08-19T08:10:55;21.35;;;12.55;;
64716;SDS011;51146;50.274;19.000;2022-08-19T08:13:23;15.98;;;11.23;;
64716;SDS011;51146;50.274;19.000;2022-08-19T08:15:51;17.65;;;12.02;;
64716;SDS011;51146;50.274;19.000;2022-08-19T08:18:21;14.52;;;11.70;;
64716;SDS011;51146;50.274;19.000;2022-08-19T08:20:53;15.88;;;10.90;;
64716;SDS011;51146;50.274;19.000;2022-08-19T08:23:21;16.13;;;11.15;;
64716;SDS011;51146;50.274;19.000;2022-08-19T08:25:56;13.45;;;11.48;;
64716;SDS011;51146;50.274;19.000;2022-08-19T08:28:24;13.63;;;10.90;;
64716;SDS011;51146;50.274;19.000;2022-08-19T08:30:55;11.48;;;10.27;;
64716;SDS011;51146;50.274;19.000;2022-08-19T08:33:24;16.13;;;12.10;;
64716;SDS011;51146;50.274;19.000;2022-08-19T08:35:59;15.50;;;10.95;;
64716;SDS011;51146;50.274;19.000;2022-08-19T08:38:29;15.88;;;10.80;;
64716;SDS011;51146;50.274;19.000;2022-08-19T08:41:10;14.02;;;11.00;;
64716;SDS011;51146;50.274;19.000;2022-08-19T08:43:47;15.52;;;11.20;;
64716;SDS011;51146;50.274;19.000;2022-08-19T08:52:07;16.05;;;11.05;;
64716;SDS011;51146;50.274;19.000;2022-08-19T08:54:41;12.02;;;10.32;;
64716;SDS011;51146;50.274;19.000;2022-08-19T08:57:32;13.80;;;10.60;;
64716;SDS011;51146;50.274;19.000;2022-08-19T09:00:10;13.10;;;10.60;;
64716;SDS011;51146;50.274;19.000;2022-08-19T09:02:43;16.05;;;10.52;;
64716;SDS011;51146;50.274;19.000;2022-08-19T09:05:16;13.45;;;10.70;;
64716;SDS011;51146;50.274;19.000;2022-08-19T09:13:21;13.80;;;10.48;;
64716;SDS011;51146;50.274;19.000;2022-08-19T09:15:57;18.83;;;12.23;;
64716;SDS011;51146;50.274;19.000;2022-08-19T09:18:40;15.95;;;11.10;;
64716;SDS011;51146;50.274;19.000;2022-08-19T09:21:21;12.63;;;10.50;;
64716;SDS011;51146;50.274;19.000;2022-08-19T09:23:58;12.65;;;11.30;;
64716;SDS011;51146;50.274;19.000;2022-08-19T09:26:25;15.85;;;11.02;;
64716;SDS011;51146;50.274;19.000;2022-08-19T09:29:13;12.18;;;10.35;;
64716;SDS011;51146;50.274;19.000;2022-08-19T09:31:40;14.68;;;10.05;;
64716;SDS011;51146;50.274;19.000;2022-08-19T09:34:07;15.02;;;9.77;;
64716;SDS011;51146;50.274;19.000;2022-08-19T09:36:47;15.90;;;9.48;;
64716;SDS011;51146;50.274;19.000;2022-08-19T09:39:20;20.60;;;9.75;;
64716;SDS011;51146;50.274;19.000;2022-08-19T09:41:47;16.80;;;9.65;;
64716;SDS011;51146;50.274;19.000;2022-08-19T09:44:14;14.40;;;9.57;;
64716;SDS011;51146;50.274;19.000;2022-08-19T09:46:44;15.23;;;8.85;;
64716;SDS011;51146;50.274;19.000;2022-08-19T09:49:14;15.02;;;9.30;;
64716;SDS011;51146;50.274;19.000;2022-08-19T09:51:43;19.10;;;10.35;;
64716;SDS011;51146;50.274;19.000;2022-08-19T09:54:16;13.20;;;9.65;;
64716;SDS011;51146;50.274;19.000;2022-08-19T09:56:50;11.45;;;9.50;;
64716;SDS011;51146;50.274;19.000;2022-08-19T09:59:17;15.10;;;10.13;;
64716;SDS011;51146;50.274;19.000;2022-08-19T10:01:44;17.20;;;9.85;;
64716;SDS011;51146;50.274;19.000;2022-08-19T10:04:11;15.32;;;9.45;;
64716;SDS011;51146;50.274;19.000;2022-08-19T10:06:45;15.00;;;9.25;;
64716;SDS011;51146;50.274;19.000;2022-08-19T10:09:18;13.23;;;10.23;;
64716;SDS011;51146;50.274;19.000;2022-08-19T10:11:58;13.43;;;9.25;;
64716;SDS011;51146;50.274;19.000;2022-08-19T10:14:28;12.65;;;9.00;;
64716;SDS011;51146;50.274;19.000;2022-08-19T10:16:59;10.30;;;8.45;;
64716;SDS011;51146;50.274;19.000;2022-08-19T10:19:45;9.68;;;8.73;;
64716;SDS011;51146;50.274;19.000;2022-08-19T10:22:22;10.48;;;8.68;;
64716;SDS011;51146;50.274;19.000;2022-08-19T10:24:50;11.15;;;8.02;;
64716;SDS011;51146;50.274;19.000;2022-08-19T10:27:18;10.83;;;8.27;;
64716;SDS011;51146;50.274;19.000;2022-08-19T10:29:45;12.15;;;8.50;;
64716;SDS011;51146;50.274;19.000;2022-08-19T10:32:12;9.93;;;7.78;;
64716;SDS011;51146;50.274;19.000;2022-08-19T10:34:39;11.37;;;8.17;;
64716;SDS011;51146;50.274;19.000;2022-08-19T10:37:14;11.82;;;8.80;;
64716;SDS011;51146;50.274;19.000;2022-08-19T10:39:54;10.70;;;7.88;;
64716;SDS011;51146;50.274;19.000;2022-08-19T10:42:21;8.60;;;7.78;;
64716;SDS011;51146;50.274;19.000;2022-08-19T10:44:48;12.00;;;8.68;;
64716;SDS011;51146;50.274;19.000;2022-08-19T10:47:17;13.07;;;7.78;;
64716;SDS011;51146;50.274;19.000;2022-08-19T10:49:51;8.82;;;7.57;;
64716;SDS011;51146;50.274;19.000;2022-08-19T10:52:41;13.75;;;8.13;;
64716;SDS011;51146;50.274;19.000;2022-08-19T10:55:16;11.75;;;7.90;;
64716;SDS011;51146;50.274;19.000;2022-08-19T10:58:09;10.38;;;8.40;;
64716;SDS011;51146;50.274;19.000;2022-08-19T11:00:37;19.23;;;8.60;;
64716;SDS011;51146;50.274;19.000;2022-08-19T11:03:04;8.45;;;7.57;;
64716;SDS011;51146;50.274;19.000;2022-08-19T11:05:30;11.95;;;8.00;;
64716;SDS011;51146;50.274;19.000;2022-08-19T11:08:05;9.82;;;7.15;;
64716;SDS011;51146;50.274;19.000;2022-08-19T11:10:50;16.88;;;7.88;;
64716;SDS011;51146;50.274;19.000;2022-08-19T11:13:20;10.05;;;7.78;;
64716;SDS011;51146;50.274;19.000;2022-08-19T11:15:47;14.27;;;8.63;;
64716;SDS011;51146;50.274;19.000;2022-08-19T11:18:14;9.90;;;7.53;;
64716;SDS011;51146;50.274;19.000;2022-08-19T11:20:40;8.73;;;7.90;;
64716;SDS011;51146;50.274;19.000;2022-08-19T11:23:08;12.38;;;7.85;;
64716;SDS011;51146;50.274;19.000;2022-08-19T11:25:34;8.30;;;7.10;;
64716;SDS011;51146;50.274;19.000;2022-08-19T11:28:04;9.38;;;7.75;;
64716;SDS011;51146;50.274;19.000;2022-08-19T11:30:32;8.82;;;7.50;;
64716;SDS011;51146;50.274;19.000;2022-08-19T11:33:00;12.90;;;7.07;;
64716;SDS011;51146;50.274;19.000;2022-08-19T11:35:27;9.18;;;6.93;;
64716;SDS011;51146;50.274;19.000;2022-08-19T11:37:54;12.57;;;8.18;;
64716;SDS011;51146;50.274;19.000;2022-08-19T11:40:22;9.65;;;7.57;;
64716;SDS011;51146;50.274;19.000;2022-08-19T11:42:49;9.63;;;7.78;;
64716;SDS011;51146;50.274;19.000;2022-08-19T11:45:22;12.95;;;8.13;;
64716;SDS011;51146;50.274;19.000;2022-08-19T11:47:53;9.75;;;7.78;;
64716;SDS011;51146;50.274;19.000;2022-08-19T11:50:20;9.10;;;7.05;;
64716;SDS011;51146;50.274;19.000;2022-08-19T11:52:49;12.60;;;7.45;;
64716;SDS011;51146;50.274;19.000;2022-08-19T11:55:18;9.30;;;6.70;;
64716;SDS011;51146;50.274;19.000;2022-08-19T11:57:46;9.18;;;6.20;;
64716;SDS011;51146;50.274;19.000;2022-08-19T12:00:13;9.80;;;6.65;;
64716;SDS011;51146;50.274;19.000;2022-08-19T12:02:40;9.70;;;7.25;;
64716;SDS011;51146;50.274;19.000;2022-08-19T12:05:07;7.72;;;6.82;;
64716;SDS011;51146;50.274;19.000;2022-08-19T12:07:38;13.75;;;7.57;;
64716;SDS011;51146;50.274;19.000;2022-08-19T12:10:07;11.13;;;7.95;;
64716;SDS011;51146;50.274;19.000;2022-08-19T12:12:36;15.30;;;7.75;;
64716;SDS011;51146;50.274;19.000;2022-08-19T12:15:09;11.10;;;7.03;;
64716;SDS011;51146;50.274;19.000;2022-08-19T12:17:38;10.02;;;6.90;;
64716;SDS011;51146;50.274;19.000;2022-08-19T12:20:05;11.77;;;7.13;;
64716;SDS011;51146;50.274;19.000;2022-08-19T12:22:34;8.38;;;6.55;;
64716;SDS011;51146;50.274;19.000;2022-08-19T12:25:01;12.27;;;7.53;;
64716;SDS011;51146;50.274;19.000;2022-08-19T12:27:28;11.73;;;7.80;;
64716;SDS011;51146;50.274;19.000;2022-08-19T12:30:07;10.07;;;7.35;;
64716;SDS011;51146;50.274;19.000;2022-08-19T12:32:36;11.75;;;7.55;;
64716;SDS011;51146;50.274;19.000;2022-08-19T12:35:05;8.43;;;7.55;;
64716;SDS011;51146;50.274;19.000;2022-08-19T12:37:33;9.70;;;7.13;;
64716;SDS011;51146;50.274;19.000;2022-08-19T12:40:00;13.57;;;8.00;;
64716;SDS011;51146;50.274;19.000;2022-08-19T12:42:27;10.20;;;6.88;;
64716;SDS011;51146;50.274;19.000;2022-08-19T12:44:54;10.38;;;7.07;;
64716;SDS011;51146;50.274;19.000;2022-08-19T12:47:21;13.90;;;7.65;;
64716;SDS011;51146;50.274;19.000;2022-08-19T12:52:36;10.10;;;7.03;;
64716;SDS011;51146;50.274;19.000;2022-08-19T12:55:09;15.13;;;7.68;;
64716;SDS011;51146;50.274;19.000;2022-08-19T12:57:37;13.73;;;7.28;;
64716;SDS011;51146;50.274;19.000;2022-08-19T13:00:09;10.63;;;7.28;;
64716;SDS011;51146;50.274;19.000;2022-08-19T13:02:40;11.07;;;7.50;;
64716;SDS011;51146;50.274;19.000;2022-08-19T13:05:14;9.90;;;7.70;;
64716;SDS011;51146;50.274;19.000;2022-08-19T13:07:43;9.95;;;7.85;;
64716;SDS011;51146;50.274;19.000;2022-08-19T13:10:14;11.13;;;7.40;;
64716;SDS011;51146;50.274;19.000;2022-08-19T13:12:48;10.95;;;7.65;;
64716;SDS011;51146;50.274;19.000;2022-08-19T13:15:18;13.85;;;7.35;;
64716;SDS011;51146;50.274;19.000;2022-08-19T13:17:50;12.32;;;6.88;;
64716;SDS011;51146;50.274;19.000;2022-08-19T13:20:19;12.27;;;7.85;;
64716;SDS011;51146;50.274;19.000;2022-08-19T13:22:47;12.75;;;6.78;;
64716;SDS011;51146;50.274;19.000;2022-08-19T13:25:15;12.43;;;6.82;;
64716;SDS011;51146;50.274;19.000;2022-08-19T13:27:43;12.25;;;6.72;;
64716;SDS011;51146;50.274;19.000;2022-08-19T13:30:11;12.88;;;6.85;;
64716;SDS011;51146;50.274;19.000;2022-08-19T13:32:58;11.40;;;7.38;;
64716;SDS011;51146;50.274;19.000;2022-08-19T13:35:41;11.88;;;6.47;;
64716;SDS011;51146;50.274;19.000;2022-08-19T13:38:11;11.85;;;7.60;;
64716;SDS011;51146;50.274;19.000;2022-08-19T13:40:39;13.97;;;6.30;;
64716;SDS011;51146;50.274;19.000;2022-08-19T13:43:07;13.48;;;7.97;;
64716;SDS011;51146;50.274;19.000;2022-08-19T13:45:48;11.68;;;6.50;;
64716;SDS011;51146;50.274;19.000;2022-08-19T13:48:16;13.68;;;6.82;;
64716;SDS011;51146;50.274;19.000;2022-08-19T13:50:45;9.43;;;6.70;;
64716;SDS011;51146;50.274;19.000;2022-08-19T13:53:14;16.48;;;7.13;;
64716;SDS011;51146;50.274;19.000;2022-08-19T13:55:42;11.30;;;7.28;;
64716;SDS011;51146;50.274;19.000;2022-08-19T13:58:10;19.13;;;7.53;;
64716;SDS011;51146;50.274;19.000;2022-08-19T14:00:39;14.20;;;6.75;;
64716;SDS011;51146;50.274;19.000;2022-08-19T14:03:09;13.38;;;7.60;;
64716;SDS011;51146;50.274;19.000;2022-08-19T14:05:37;12.43;;;7.13;;
64716;SDS011;51146;50.274;19.000;2022-08-19T14:08:04;10.75;;;6.80;;
64716;SDS011;51146;50.274;19.000;2022-08-19T14:10:31;11.73;;;7.68;;
64716;SDS011;51146;50.274;19.000;2022-08-19T14:13:00;17.33;;;7.43;;
64716;SDS011;51146;50.274;19.000;2022-08-19T14:15:29;17.40;;;7.00;;
64716;SDS011;51146;50.274;19.000;2022-08-19T14:17:56;17.75;;;7.70;;
64716;SDS011;51146;50.274;19.000;2022-08-19T14:20:23;9.63;;;6.50;;
64716;SDS011;51146;50.274;19.000;2022-08-19T14:22:51;13.60;;;7.70;;
64716;SDS011;51146;50.274;19.000;2022-08-19T14:25:20;11.33;;;7.20;;
64716;SDS011;51146;50.274;19.000;2022-08-19T14:27:49;8.75;;;7.30;;
64716;SDS011;51146;50.274;19.000;2022-08-19T14:30:17;12.70;;;7.43;;
64716;SDS011;51146;50.274;19.000;2022-08-19T14:32:47;12.73;;;8.68;;
64716;SDS011;51146;50.274;19.000;2022-08-19T14:35:14;10.25;;;7.03;;
64716;SDS011;51146;50.274;19.000;2022-08-19T14:37:42;18.55;;;8.38;;
64716;SDS011;51146;50.274;19.000;2022-08-19T14:40:22;12.55;;;6.80;;
64716;SDS011;51146;50.274;19.000;2022-08-19T14:42:56;11.02;;;7.43;;
64716;SDS011;51146;50.274;19.000;2022-08-19T14:45:27;11.75;;;6.88;;
64716;SDS011;51146;50.274;19.000;2022-08-19T14:47:55;14.70;;;7.03;;
64716;SDS011;51146;50.274;19.000;2022-08-19T14:50:22;11.27;;;7.40;;
64716;SDS011;51146;50.274;19.000;2022-08-19T14:52:49;11.70;;;7.13;;
64716;SDS011;51146;50.274;19.000;2022-08-19T14:55:16;12.55;;;6.72;;
64716;SDS011;51146;50.274;19.000;2022-08-19T14:57:44;15.00;;;6.90;;